sensor_id;sensor_type;location;lat;lon;timestamp;temperature;humidity
10121;DHT22;5100;45.176;5.714;2023-05-31T00:02:16;23.60;58.60
10121;DHT22;5100;45.176;5.714;2023-05-31T00:04:42;23.60;58.90
10121;DHT22;5100;45.176;5.714;2023-05-31T00:07:08;23.60;59.10
10121;DHT22;5100;45.176;5.714;2023-05-31T00:09:34;23.60;59.20
10121;DHT22;5100;45.176;5.714;2023-05-31T00:12:01;23.60;59.30
10121;DHT22;5100;45.176;5.714;2023-05-31T00:14:27;23.50;59.50
10121;DHT22;5100;45.176;5.714;2023-05-31T00:16:53;23.50;59.50
10121;DHT22;5100;45.176;5.714;2023-05-31T00:19:37;23.50;59.60
10121;DHT22;5100;45.176;5.714;2023-05-31T00:22:03;23.50;59.60
10121;DHT22;5100;45.176;5.714;2023-05-31T00:24:29;23.50;59.70
10121;DHT22;5100;45.176;5.714;2023-05-31T00:26:55;23.50;59.70
10121;DHT22;5100;45.176;5.714;2023-05-31T00:29:22;23.50;59.80
10121;DHT22;5100;45.176;5.714;2023-05-31T00:31:49;23.40;59.80
10121;DHT22;5100;45.176;5.714;2023-05-31T00:34:15;23.40;59.90
10121;DHT22;5100;45.176;5.714;2023-05-31T00:36:41;23.40;59.90
10121;DHT22;5100;45.176;5.714;2023-05-31T00:39:08;23.40;59.90
10121;DHT22;5100;45.176;5.714;2023-05-31T00:41:34;23.40;60.00
10121;DHT22;5100;45.176;5.714;2023-05-31T00:44:00;23.30;60.00
10121;DHT22;5100;45.176;5.714;2023-05-31T00:46:31;23.30;60.10
10121;DHT22;5100;45.176;5.714;2023-05-31T00:48:58;23.30;60.20
10121;DHT22;5100;45.176;5.714;2023-05-31T00:51:24;23.30;60.20
10121;DHT22;5100;45.176;5.714;2023-05-31T00:53:52;23.30;60.30
10121;DHT22;5100;45.176;5.714;2023-05-31T00:56:19;23.30;60.50
10121;DHT22;5100;45.176;5.714;2023-05-31T00:58:46;23.30;60.60
10121;DHT22;5100;45.176;5.714;2023-05-31T01:01:13;23.30;60.60
10121;DHT22;5100;45.176;5.714;2023-05-31T01:03:43;23.20;60.70
10121;DHT22;5100;45.176;5.714;2023-05-31T01:06:10;23.20;60.70
10121;DHT22;5100;45.176;5.714;2023-05-31T01:08:37;23.20;60.70
10121;DHT22;5100;45.176;5.714;2023-05-31T01:11:12;23.20;60.70
10121;DHT22;5100;45.176;5.714;2023-05-31T01:13:52;23.20;60.70
10121;DHT22;5100;45.176;5.714;2023-05-31T01:16:35;23.20;60.80
10121;DHT22;5100;45.176;5.714;2023-05-31T01:19:06;23.10;60.90
10121;DHT22;5100;45.176;5.714;2023-05-31T01:24:36;23.10;61.00
10121;DHT22;5100;45.176;5.714;2023-05-31T01:27:07;23.10;61.00
10121;DHT22;5100;45.176;5.714;2023-05-31T01:29:34;23.10;61.00
10121;DHT22;5100;45.176;5.714;2023-05-31T01:32:02;23.10;61.00
10121;DHT22;5100;45.176;5.714;2023-05-31T01:34:28;23.10;61.00
10121;DHT22;5100;45.176;5.714;2023-05-31T01:36:54;23.00;61.00
10121;DHT22;5100;45.176;5.714;2023-05-31T01:39:21;23.00;61.10
10121;DHT22;5100;45.176;5.714;2023-05-31T01:41:48;23.00;61.20
10121;DHT22;5100;45.176;5.714;2023-05-31T01:44:16;23.00;61.10
10121;DHT22;5100;45.176;5.714;2023-05-31T01:46:45;23.00;61.20
10121;DHT22;5100;45.176;5.714;2023-05-31T01:49:11;23.00;61.30
10121;DHT22;5100;45.176;5.714;2023-05-31T01:51:40;23.00;61.20
10121;DHT22;5100;45.176;5.714;2023-05-31T01:54:07;23.00;61.30
10121;DHT22;5100;45.176;5.714;2023-05-31T01:56:36;22.90;61.30
10121;DHT22;5100;45.176;5.714;2023-05-31T01:59:03;22.90;61.30
10121;DHT22;5100;45.176;5.714;2023-05-31T02:01:32;22.90;61.20
10121;DHT22;5100;45.176;5.714;2023-05-31T02:03:58;22.90;61.20
10121;DHT22;5100;45.176;5.714;2023-05-31T02:06:24;22.90;61.20
10121;DHT22;5100;45.176;5.714;2023-05-31T02:08:53;22.90;61.30
10121;DHT22;5100;45.176;5.714;2023-05-31T02:11:23;22.90;61.40
10121;DHT22;5100;45.176;5.714;2023-05-31T02:13:49;22.90;61.50
10121;DHT22;5100;45.176;5.714;2023-05-31T02:16:15;22.90;61.60
10121;DHT22;5100;45.176;5.714;2023-05-31T02:18:45;22.80;61.70
10121;DHT22;5100;45.176;5.714;2023-05-31T02:21:11;22.80;61.80
10121;DHT22;5100;45.176;5.714;2023-05-31T02:23:37;22.80;61.90
10121;DHT22;5100;45.176;5.714;2023-05-31T02:26:03;22.80;62.00
10121;DHT22;5100;45.176;5.714;2023-05-31T02:28:31;22.80;62.10
10121;DHT22;5100;45.176;5.714;2023-05-31T02:30:59;22.70;62.10
10121;DHT22;5100;45.176;5.714;2023-05-31T02:33:26;22.70;62.00
10121;DHT22;5100;45.176;5.714;2023-05-31T02:35:53;22.70;62.10
10121;DHT22;5100;45.176;5.714;2023-05-31T02:38:20;22.70;62.10
10121;DHT22;5100;45.176;5.714;2023-05-31T02:40:46;22.70;62.10
10121;DHT22;5100;45.176;5.714;2023-05-31T02:43:12;22.70;62.10
10121;DHT22;5100;45.176;5.714;2023-05-31T02:45:38;22.60;62.10
10121;DHT22;5100;45.176;5.714;2023-05-31T02:48:06;22.60;62.10
10121;DHT22;5100;45.176;5.714;2023-05-31T02:50:33;22.60;62.10
10121;DHT22;5100;45.176;5.714;2023-05-31T02:52:59;22.60;62.00
10121;DHT22;5100;45.176;5.714;2023-05-31T02:55:32;22.60;62.00
10121;DHT22;5100;45.176;5.714;2023-05-31T02:58:02;22.60;62.10
10121;DHT22;5100;45.176;5.714;2023-05-31T03:00:29;22.60;62.30
10121;DHT22;5100;45.176;5.714;2023-05-31T03:02:55;22.50;62.30
10121;DHT22;5100;45.176;5.714;2023-05-31T03:05:22;22.50;62.50
10121;DHT22;5100;45.176;5.714;2023-05-31T03:07:49;22.50;62.50
10121;DHT22;5100;45.176;5.714;2023-05-31T03:10:15;22.50;62.60
10121;DHT22;5100;45.176;5.714;2023-05-31T03:12:42;22.50;62.80
10121;DHT22;5100;45.176;5.714;2023-05-31T03:15:08;22.50;62.80
10121;DHT22;5100;45.176;5.714;2023-05-31T03:17:35;22.50;62.60
10121;DHT22;5100;45.176;5.714;2023-05-31T03:20:05;22.50;62.60
10121;DHT22;5100;45.176;5.714;2023-05-31T03:22:32;22.50;62.50
10121;DHT22;5100;45.176;5.714;2023-05-31T03:24:58;22.50;62.30
10121;DHT22;5100;45.176;5.714;2023-05-31T03:27:24;22.40;62.10
10121;DHT22;5100;45.176;5.714;2023-05-31T03:29:51;22.40;61.80
10121;DHT22;5100;45.176;5.714;2023-05-31T03:32:17;22.40;61.80
10121;DHT22;5100;45.176;5.714;2023-05-31T03:34:43;22.40;61.70
10121;DHT22;5100;45.176;5.714;2023-05-31T03:37:10;22.40;61.50
10121;DHT22;5100;45.176;5.714;2023-05-31T03:39:36;22.30;61.40
10121;DHT22;5100;45.176;5.714;2023-05-31T03:42:03;22.30;61.30
10121;DHT22;5100;45.176;5.714;2023-05-31T03:44:29;22.30;61.20
10121;DHT22;5100;45.176;5.714;2023-05-31T03:46:55;22.30;61.10
10121;DHT22;5100;45.176;5.714;2023-05-31T03:49:21;22.30;61.10
10121;DHT22;5100;45.176;5.714;2023-05-31T03:51:47;22.30;61.10
10121;DHT22;5100;45.176;5.714;2023-05-31T03:54:14;22.30;61.10
10121;DHT22;5100;45.176;5.714;2023-05-31T03:56:40;22.30;61.10
10121;DHT22;5100;45.176;5.714;2023-05-31T03:59:08;22.20;61.10
10121;DHT22;5100;45.176;5.714;2023-05-31T04:01:34;22.20;61.20
10121;DHT22;5100;45.176;5.714;2023-05-31T04:04:00;22.20;61.40
10121;DHT22;5100;45.176;5.714;2023-05-31T04:06:26;22.20;61.50
10121;DHT22;5100;45.176;5.714;2023-05-31T04:08:53;22.20;61.60
10121;DHT22;5100;45.176;5.714;2023-05-31T04:11:20;22.20;61.80
10121;DHT22;5100;45.176;5.714;2023-05-31T04:13:46;22.20;62.00
10121;DHT22;5100;45.176;5.714;2023-05-31T04:16:12;22.20;62.00
10121;DHT22;5100;45.176;5.714;2023-05-31T04:18:38;22.10;62.10
10121;DHT22;5100;45.176;5.714;2023-05-31T04:21:04;22.10;62.20
10121;DHT22;5100;45.176;5.714;2023-05-31T04:23:31;22.10;62.40
10121;DHT22;5100;45.176;5.714;2023-05-31T04:25:58;22.10;62.50
10121;DHT22;5100;45.176;5.714;2023-05-31T04:28:28;22.10;62.60
10121;DHT22;5100;45.176;5.714;2023-05-31T04:30:55;22.10;62.80
10121;DHT22;5100;45.176;5.714;2023-05-31T04:33:23;22.10;63.10
10121;DHT22;5100;45.176;5.714;2023-05-31T04:35:49;22.10;63.20
10121;DHT22;5100;45.176;5.714;2023-05-31T04:38:16;22.10;63.20
10121;DHT22;5100;45.176;5.714;2023-05-31T04:40:44;22.10;63.30
10121;DHT22;5100;45.176;5.714;2023-05-31T04:43:10;22.10;63.40
10121;DHT22;5100;45.176;5.714;2023-05-31T04:45:36;22.10;63.40
10121;DHT22;5100;45.176;5.714;2023-05-31T04:48:05;22.10;63.50
10121;DHT22;5100;45.176;5.714;2023-05-31T04:50:32;22.10;63.60
10121;DHT22;5100;45.176;5.714;2023-05-31T04:52:59;22.10;63.10
10121;DHT22;5100;45.176;5.714;2023-05-31T04:55:26;22.10;62.90
10121;DHT22;5100;45.176;5.714;2023-05-31T04:57:52;22.10;62.60
10121;DHT22;5100;45.176;5.714;2023-05-31T05:00:19;22.10;62.30
10121;DHT22;5100;45.176;5.714;2023-05-31T05:02:48;22.10;62.10
10121;DHT22;5100;45.176;5.714;2023-05-31T05:05:14;22.20;62.10
10121;DHT22;5100;45.176;5.714;2023-05-31T05:07:42;22.10;62.30
10121;DHT22;5100;45.176;5.714;2023-05-31T05:10:08;22.20;62.20
10121;DHT22;5100;45.176;5.714;2023-05-31T05:12:35;22.20;62.20
10121;DHT22;5100;45.176;5.714;2023-05-31T05:15:01;22.30;62.10
10121;DHT22;5100;45.176;5.714;2023-05-31T05:17:28;22.40;61.70
10121;DHT22;5100;45.176;5.714;2023-05-31T05:19:55;22.50;61.70
10121;DHT22;5100;45.176;5.714;2023-05-31T05:22:21;22.60;61.50
10121;DHT22;5100;45.176;5.714;2023-05-31T05:24:48;22.60;61.40
10121;DHT22;5100;45.176;5.714;2023-05-31T05:27:14;22.70;61.40
10121;DHT22;5100;45.176;5.714;2023-05-31T05:29:40;22.70;61.50
10121;DHT22;5100;45.176;5.714;2023-05-31T05:32:07;22.90;61.60
10121;DHT22;5100;45.176;5.714;2023-05-31T05:34:33;23.00;61.60
10121;DHT22;5100;45.176;5.714;2023-05-31T05:36:59;23.10;61.60
10121;DHT22;5100;45.176;5.714;2023-05-31T05:39:26;23.20;61.50
10121;DHT22;5100;45.176;5.714;2023-05-31T05:41:52;23.30;61.20
10121;DHT22;5100;45.176;5.714;2023-05-31T05:44:18;23.40;61.20
10121;DHT22;5100;45.176;5.714;2023-05-31T05:46:46;23.40;61.30
10121;DHT22;5100;45.176;5.714;2023-05-31T05:49:12;23.40;61.30
10121;DHT22;5100;45.176;5.714;2023-05-31T05:51:38;23.40;61.40
10121;DHT22;5100;45.176;5.714;2023-05-31T05:54:05;23.50;61.50
10121;DHT22;5100;45.176;5.714;2023-05-31T05:56:31;23.50;61.50
10121;DHT22;5100;45.176;5.714;2023-05-31T05:58:57;23.50;61.50
10121;DHT22;5100;45.176;5.714;2023-05-31T06:01:25;23.50;61.50
10121;DHT22;5100;45.176;5.714;2023-05-31T06:03:53;23.50;61.50
10121;DHT22;5100;45.176;5.714;2023-05-31T06:06:21;23.60;61.40
10121;DHT22;5100;45.176;5.714;2023-05-31T06:08:47;23.60;61.50
10121;DHT22;5100;45.176;5.714;2023-05-31T06:11:15;23.60;61.50
10121;DHT22;5100;45.176;5.714;2023-05-31T06:13:43;23.60;61.40
10121;DHT22;5100;45.176;5.714;2023-05-31T06:16:13;23.70;61.30
10121;DHT22;5100;45.176;5.714;2023-05-31T06:18:40;23.70;61.10
10121;DHT22;5100;45.176;5.714;2023-05-31T06:21:05;23.70;61.10
10121;DHT22;5100;45.176;5.714;2023-05-31T06:23:32;23.70;60.60
10121;DHT22;5100;45.176;5.714;2023-05-31T06:25:58;23.70;60.40
10121;DHT22;5100;45.176;5.714;2023-05-31T06:28:24;23.70;60.20
10121;DHT22;5100;45.176;5.714;2023-05-31T06:30:51;23.80;60.30
10121;DHT22;5100;45.176;5.714;2023-05-31T06:33:17;23.80;60.30
10121;DHT22;5100;45.176;5.714;2023-05-31T06:35:43;23.80;60.20
10121;DHT22;5100;45.176;5.714;2023-05-31T06:38:10;23.70;60.20
10121;DHT22;5100;45.176;5.714;2023-05-31T06:40:42;23.80;60.30
10121;DHT22;5100;45.176;5.714;2023-05-31T06:43:09;23.80;60.40
10121;DHT22;5100;45.176;5.714;2023-05-31T06:45:41;23.80;60.60
10121;DHT22;5100;45.176;5.714;2023-05-31T06:48:09;23.80;60.70
10121;DHT22;5100;45.176;5.714;2023-05-31T06:50:48;23.80;60.80
10121;DHT22;5100;45.176;5.714;2023-05-31T06:53:19;23.80;60.80
10121;DHT22;5100;45.176;5.714;2023-05-31T06:55:45;23.80;60.60
10121;DHT22;5100;45.176;5.714;2023-05-31T06:58:14;23.80;60.60
10121;DHT22;5100;45.176;5.714;2023-05-31T07:00:41;23.80;60.60
10121;DHT22;5100;45.176;5.714;2023-05-31T07:03:08;23.80;60.50
10121;DHT22;5100;45.176;5.714;2023-05-31T07:05:35;23.80;60.60
10121;DHT22;5100;45.176;5.714;2023-05-31T07:08:02;23.70;60.60
10121;DHT22;5100;45.176;5.714;2023-05-31T07:10:29;23.70;60.70
10121;DHT22;5100;45.176;5.714;2023-05-31T07:12:55;23.70;60.60
10121;DHT22;5100;45.176;5.714;2023-05-31T07:15:22;23.70;60.50
10121;DHT22;5100;45.176;5.714;2023-05-31T07:17:48;23.70;60.50
10121;DHT22;5100;45.176;5.714;2023-05-31T07:20:15;23.70;60.50
10121;DHT22;5100;45.176;5.714;2023-05-31T07:22:42;23.70;60.40
10121;DHT22;5100;45.176;5.714;2023-05-31T07:25:08;23.70;60.30
10121;DHT22;5100;45.176;5.714;2023-05-31T07:27:34;23.70;60.40
10121;DHT22;5100;45.176;5.714;2023-05-31T07:30:00;23.80;60.50
10121;DHT22;5100;45.176;5.714;2023-05-31T07:32:26;23.80;60.60
10121;DHT22;5100;45.176;5.714;2023-05-31T07:34:52;23.80;60.70
10121;DHT22;5100;45.176;5.714;2023-05-31T07:37:18;23.80;60.80
10121;DHT22;5100;45.176;5.714;2023-05-31T07:39:44;23.80;60.80
10121;DHT22;5100;45.176;5.714;2023-05-31T07:42:11;23.80;60.80
10121;DHT22;5100;45.176;5.714;2023-05-31T07:44:39;23.80;60.80
10121;DHT22;5100;45.176;5.714;2023-05-31T07:47:05;23.80;60.80
10121;DHT22;5100;45.176;5.714;2023-05-31T07:49:31;23.80;60.80
10121;DHT22;5100;45.176;5.714;2023-05-31T07:51:57;23.80;60.80
10121;DHT22;5100;45.176;5.714;2023-05-31T07:54:23;23.90;60.70
10121;DHT22;5100;45.176;5.714;2023-05-31T07:56:49;23.90;60.50
10121;DHT22;5100;45.176;5.714;2023-05-31T07:59:15;23.90;60.60
10121;DHT22;5100;45.176;5.714;2023-05-31T08:01:42;23.90;60.60
10121;DHT22;5100;45.176;5.714;2023-05-31T08:04:10;23.90;60.60
10121;DHT22;5100;45.176;5.714;2023-05-31T08:06:36;23.90;60.60
10121;DHT22;5100;45.176;5.714;2023-05-31T08:09:04;24.00;60.40
10121;DHT22;5100;45.176;5.714;2023-05-31T08:11:33;24.00;60.00
10121;DHT22;5100;45.176;5.714;2023-05-31T08:14:02;24.00;59.70
10121;DHT22;5100;45.176;5.714;2023-05-31T08:16:29;24.00;59.50
10121;DHT22;5100;45.176;5.714;2023-05-31T08:18:55;24.00;59.30
10121;DHT22;5100;45.176;5.714;2023-05-31T08:21:22;24.00;59.00
10121;DHT22;5100;45.176;5.714;2023-05-31T08:23:48;24.10;58.80
10121;DHT22;5100;45.176;5.714;2023-05-31T08:26:14;24.10;58.80
10121;DHT22;5100;45.176;5.714;2023-05-31T08:28:40;24.10;58.80
10121;DHT22;5100;45.176;5.714;2023-05-31T08:31:07;24.20;58.90
10121;DHT22;5100;45.176;5.714;2023-05-31T08:33:33;24.20;58.80
10121;DHT22;5100;45.176;5.714;2023-05-31T08:35:59;24.20;58.90
10121;DHT22;5100;45.176;5.714;2023-05-31T08:38:27;24.20;58.80
10121;DHT22;5100;45.176;5.714;2023-05-31T08:40:55;24.30;58.80
10121;DHT22;5100;45.176;5.714;2023-05-31T08:43:22;24.30;58.80
10121;DHT22;5100;45.176;5.714;2023-05-31T08:45:51;24.30;58.70
10121;DHT22;5100;45.176;5.714;2023-05-31T08:48:35;24.30;58.60
10121;DHT22;5100;45.176;5.714;2023-05-31T08:51:03;24.40;58.70
10121;DHT22;5100;45.176;5.714;2023-05-31T08:53:33;24.40;58.80
10121;DHT22;5100;45.176;5.714;2023-05-31T08:56:00;24.40;58.60
10121;DHT22;5100;45.176;5.714;2023-05-31T08:58:28;24.50;58.50
10121;DHT22;5100;45.176;5.714;2023-05-31T09:00:54;24.50;58.50
10121;DHT22;5100;45.176;5.714;2023-05-31T09:03:22;24.50;58.50
10121;DHT22;5100;45.176;5.714;2023-05-31T09:05:48;24.60;58.40
10121;DHT22;5100;45.176;5.714;2023-05-31T09:08:15;24.60;58.20
10121;DHT22;5100;45.176;5.714;2023-05-31T09:10:41;24.60;58.20
10121;DHT22;5100;45.176;5.714;2023-05-31T09:13:07;24.70;58.10
10121;DHT22;5100;45.176;5.714;2023-05-31T09:15:36;24.70;58.00
10121;DHT22;5100;45.176;5.714;2023-05-31T09:18:16;24.80;57.90
10121;DHT22;5100;45.176;5.714;2023-05-31T09:20:43;24.80;57.70
10121;DHT22;5100;45.176;5.714;2023-05-31T09:23:09;24.80;57.80
10121;DHT22;5100;45.176;5.714;2023-05-31T09:25:52;24.90;57.70
10121;DHT22;5100;45.176;5.714;2023-05-31T09:28:20;24.90;57.50
10121;DHT22;5100;45.176;5.714;2023-05-31T09:31:03;25.00;56.90
10121;DHT22;5100;45.176;5.714;2023-05-31T09:33:46;25.00;56.70
10121;DHT22;5100;45.176;5.714;2023-05-31T09:36:14;25.10;56.60
10121;DHT22;5100;45.176;5.714;2023-05-31T09:38:48;25.10;56.50
10121;DHT22;5100;45.176;5.714;2023-05-31T09:41:20;25.10;56.20
10121;DHT22;5100;45.176;5.714;2023-05-31T09:43:50;25.20;56.10
10121;DHT22;5100;45.176;5.714;2023-05-31T09:46:20;25.20;56.00
10121;DHT22;5100;45.176;5.714;2023-05-31T09:49:06;25.20;56.00
10121;DHT22;5100;45.176;5.714;2023-05-31T09:51:33;25.30;55.80
10121;DHT22;5100;45.176;5.714;2023-05-31T09:54:15;25.30;55.70
10121;DHT22;5100;45.176;5.714;2023-05-31T09:56:43;25.30;55.40
10121;DHT22;5100;45.176;5.714;2023-05-31T09:59:10;25.40;55.30
10121;DHT22;5100;45.176;5.714;2023-05-31T10:01:39;25.40;55.10
10121;DHT22;5100;45.176;5.714;2023-05-31T10:04:06;25.40;55.10
10121;DHT22;5100;45.176;5.714;2023-05-31T10:06:32;25.50;55.20
10121;DHT22;5100;45.176;5.714;2023-05-31T10:09:05;25.50;55.20
10121;DHT22;5100;45.176;5.714;2023-05-31T10:11:35;25.60;55.10
10121;DHT22;5100;45.176;5.714;2023-05-31T10:14:24;25.60;55.20
10121;DHT22;5100;45.176;5.714;2023-05-31T10:16:54;25.60;55.00
10121;DHT22;5100;45.176;5.714;2023-05-31T10:19:32;25.60;54.60
10121;DHT22;5100;45.176;5.714;2023-05-31T10:22:01;25.70;54.40
10121;DHT22;5100;45.176;5.714;2023-05-31T10:24:36;25.70;54.40
10121;DHT22;5100;45.176;5.714;2023-05-31T10:29:38;25.70;54.10
10121;DHT22;5100;45.176;5.714;2023-05-31T10:32:15;25.80;54.10
10121;DHT22;5100;45.176;5.714;2023-05-31T10:34:42;25.80;54.10
10121;DHT22;5100;45.176;5.714;2023-05-31T10:37:10;25.80;54.00
10121;DHT22;5100;45.176;5.714;2023-05-31T10:42:43;25.80;53.70
10121;DHT22;5100;45.176;5.714;2023-05-31T10:45:19;25.80;53.50
10121;DHT22;5100;45.176;5.714;2023-05-31T10:50:29;25.80;53.20
10121;DHT22;5100;45.176;5.714;2023-05-31T10:53:16;25.80;53.20
10121;DHT22;5100;45.176;5.714;2023-05-31T10:55:43;25.90;53.10
10121;DHT22;5100;45.176;5.714;2023-05-31T11:00:55;25.90;53.20
10121;DHT22;5100;45.176;5.714;2023-05-31T11:03:23;25.90;53.00
10121;DHT22;5100;45.176;5.714;2023-05-31T11:06:00;25.90;52.80
10121;DHT22;5100;45.176;5.714;2023-05-31T11:08:28;26.00;52.80
10121;DHT22;5100;45.176;5.714;2023-05-31T11:14:03;26.00;52.70
10121;DHT22;5100;45.176;5.714;2023-05-31T11:16:31;26.00;52.80
10121;DHT22;5100;45.176;5.714;2023-05-31T11:19:13;26.00;53.00
10121;DHT22;5100;45.176;5.714;2023-05-31T11:24:36;26.10;53.10
10121;DHT22;5100;45.176;5.714;2023-05-31T11:27:04;26.10;53.10
10121;DHT22;5100;45.176;5.714;2023-05-31T11:35:11;26.20;52.80
10121;DHT22;5100;45.176;5.714;2023-05-31T11:37:40;26.20;52.80
10121;DHT22;5100;45.176;5.714;2023-05-31T11:40:08;26.30;52.80
10121;DHT22;5100;45.176;5.714;2023-05-31T11:42:43;26.30;52.70
10121;DHT22;5100;45.176;5.714;2023-05-31T11:45:12;26.30;52.80
10121;DHT22;5100;45.176;5.714;2023-05-31T11:50:11;26.40;52.80
10121;DHT22;5100;45.176;5.714;2023-05-31T11:52:45;26.40;53.00
10121;DHT22;5100;45.176;5.714;2023-05-31T11:55:14;26.50;53.10
10121;DHT22;5100;45.176;5.714;2023-05-31T11:57:42;26.50;53.20
10121;DHT22;5100;45.176;5.714;2023-05-31T12:00:11;26.50;53.00
10121;DHT22;5100;45.176;5.714;2023-05-31T12:02:39;26.50;53.00
10121;DHT22;5100;45.176;5.714;2023-05-31T12:05:05;26.60;53.00
10121;DHT22;5100;45.176;5.714;2023-05-31T12:07:31;26.60;53.20
10121;DHT22;5100;45.176;5.714;2023-05-31T12:09:59;26.60;53.20
10121;DHT22;5100;45.176;5.714;2023-05-31T12:12:25;26.70;53.30
10121;DHT22;5100;45.176;5.714;2023-05-31T12:14:52;26.70;53.40
10121;DHT22;5100;45.176;5.714;2023-05-31T12:17:19;26.80;53.60
10121;DHT22;5100;45.176;5.714;2023-05-31T12:19:49;26.80;53.70
10121;DHT22;5100;45.176;5.714;2023-05-31T12:22:15;26.80;53.70
10121;DHT22;5100;45.176;5.714;2023-05-31T12:24:49;26.80;53.60
10121;DHT22;5100;45.176;5.714;2023-05-31T12:27:16;26.90;53.80
10121;DHT22;5100;45.176;5.714;2023-05-31T12:29:42;26.90;53.70
10121;DHT22;5100;45.176;5.714;2023-05-31T12:32:09;26.90;53.80
10121;DHT22;5100;45.176;5.714;2023-05-31T12:34:36;26.90;53.80
10121;DHT22;5100;45.176;5.714;2023-05-31T12:37:08;26.90;53.60
10121;DHT22;5100;45.176;5.714;2023-05-31T12:39:34;27.00;53.50
10121;DHT22;5100;45.176;5.714;2023-05-31T12:42:01;27.00;53.60
10121;DHT22;5100;45.176;5.714;2023-05-31T12:44:29;27.00;53.80
10121;DHT22;5100;45.176;5.714;2023-05-31T12:47:04;27.00;54.10
10121;DHT22;5100;45.176;5.714;2023-05-31T12:49:32;27.00;54.10
10121;DHT22;5100;45.176;5.714;2023-05-31T12:52:00;27.00;54.20
10121;DHT22;5100;45.176;5.714;2023-05-31T12:54:28;27.00;54.30
10121;DHT22;5100;45.176;5.714;2023-05-31T12:56:57;27.00;54.50
10121;DHT22;5100;45.176;5.714;2023-05-31T12:59:24;27.00;54.40
10121;DHT22;5100;45.176;5.714;2023-05-31T13:01:51;27.00;54.40
10121;DHT22;5100;45.176;5.714;2023-05-31T13:04:18;27.00;54.50
10121;DHT22;5100;45.176;5.714;2023-05-31T13:06:44;27.00;54.50
10121;DHT22;5100;45.176;5.714;2023-05-31T13:09:10;27.00;54.40
10121;DHT22;5100;45.176;5.714;2023-05-31T13:11:39;27.00;54.50
10121;DHT22;5100;45.176;5.714;2023-05-31T13:14:08;26.90;54.80
10121;DHT22;5100;45.176;5.714;2023-05-31T13:16:35;26.90;55.00
10121;DHT22;5100;45.176;5.714;2023-05-31T13:19:04;26.90;55.20
10121;DHT22;5100;45.176;5.714;2023-05-31T13:21:31;26.90;55.40
10121;DHT22;5100;45.176;5.714;2023-05-31T13:23:58;26.90;55.70
10121;DHT22;5100;45.176;5.714;2023-05-31T13:26:26;26.90;55.40
10121;DHT22;5100;45.176;5.714;2023-05-31T13:28:58;26.90;55.20
10121;DHT22;5100;45.176;5.714;2023-05-31T13:31:26;26.90;55.30
10121;DHT22;5100;45.176;5.714;2023-05-31T13:33:53;26.90;55.20
10121;DHT22;5100;45.176;5.714;2023-05-31T13:36:19;26.90;55.10
10121;DHT22;5100;45.176;5.714;2023-05-31T13:38:48;26.90;55.00
10121;DHT22;5100;45.176;5.714;2023-05-31T13:41:15;26.90;54.90
10121;DHT22;5100;45.176;5.714;2023-05-31T13:43:41;26.90;54.80
10121;DHT22;5100;45.176;5.714;2023-05-31T13:46:07;26.90;54.90
10121;DHT22;5100;45.176;5.714;2023-05-31T13:48:35;27.00;55.00
10121;DHT22;5100;45.176;5.714;2023-05-31T13:51:05;27.00;54.90
10121;DHT22;5100;45.176;5.714;2023-05-31T13:53:32;27.10;54.80
10121;DHT22;5100;45.176;5.714;2023-05-31T13:55:58;27.10;54.50
10121;DHT22;5100;45.176;5.714;2023-05-31T13:58:25;27.20;54.50
10121;DHT22;5100;45.176;5.714;2023-05-31T14:00:51;27.20;54.70
10121;DHT22;5100;45.176;5.714;2023-05-31T14:03:18;27.20;54.90
10121;DHT22;5100;45.176;5.714;2023-05-31T14:05:44;27.30;55.00
10121;DHT22;5100;45.176;5.714;2023-05-31T14:08:15;27.30;55.00
10121;DHT22;5100;45.176;5.714;2023-05-31T14:10:42;27.30;54.90
10121;DHT22;5100;45.176;5.714;2023-05-31T14:13:07;27.40;54.30
10121;DHT22;5100;45.176;5.714;2023-05-31T14:15:34;27.40;53.90
10121;DHT22;5100;45.176;5.714;2023-05-31T14:18:00;27.40;53.70
10121;DHT22;5100;45.176;5.714;2023-05-31T14:20:26;27.40;53.90
10121;DHT22;5100;45.176;5.714;2023-05-31T14:22:52;27.50;54.20
10121;DHT22;5100;45.176;5.714;2023-05-31T14:25:19;27.50;54.50
10121;DHT22;5100;45.176;5.714;2023-05-31T14:27:45;27.50;54.60
10121;DHT22;5100;45.176;5.714;2023-05-31T14:30:11;27.50;54.70
10121;DHT22;5100;45.176;5.714;2023-05-31T14:32:37;27.60;54.60
10121;DHT22;5100;45.176;5.714;2023-05-31T14:35:03;27.60;54.00
10121;DHT22;5100;45.176;5.714;2023-05-31T14:37:29;27.60;52.40
10121;DHT22;5100;45.176;5.714;2023-05-31T14:39:55;27.60;51.20
10121;DHT22;5100;45.176;5.714;2023-05-31T14:42:21;27.60;50.20
10121;DHT22;5100;45.176;5.714;2023-05-31T14:44:48;27.60;50.00
10121;DHT22;5100;45.176;5.714;2023-05-31T14:47:14;27.60;49.90
10121;DHT22;5100;45.176;5.714;2023-05-31T14:49:40;27.60;49.90
10121;DHT22;5100;45.176;5.714;2023-05-31T14:52:06;27.60;49.90
10121;DHT22;5100;45.176;5.714;2023-05-31T14:54:34;27.60;50.00
10121;DHT22;5100;45.176;5.714;2023-05-31T14:57:00;27.60;49.70
10121;DHT22;5100;45.176;5.714;2023-05-31T14:59:32;27.50;49.60
10121;DHT22;5100;45.176;5.714;2023-05-31T15:01:58;27.50;49.50
10121;DHT22;5100;45.176;5.714;2023-05-31T15:04:25;27.50;49.20
10121;DHT22;5100;45.176;5.714;2023-05-31T15:06:51;27.50;49.30
10121;DHT22;5100;45.176;5.714;2023-05-31T15:09:18;27.50;49.20
10121;DHT22;5100;45.176;5.714;2023-05-31T15:11:45;27.40;49.30
10121;DHT22;5100;45.176;5.714;2023-05-31T15:14:12;27.40;49.40
10121;DHT22;5100;45.176;5.714;2023-05-31T15:16:39;27.50;49.20
10121;DHT22;5100;45.176;5.714;2023-05-31T15:19:05;27.40;48.90
10121;DHT22;5100;45.176;5.714;2023-05-31T15:21:31;27.40;49.00
10121;DHT22;5100;45.176;5.714;2023-05-31T15:23:57;27.40;49.30
10121;DHT22;5100;45.176;5.714;2023-05-31T15:26:23;27.40;49.70
10121;DHT22;5100;45.176;5.714;2023-05-31T15:28:49;27.40;49.50
10121;DHT22;5100;45.176;5.714;2023-05-31T15:31:16;27.50;49.50
10121;DHT22;5100;45.176;5.714;2023-05-31T15:33:42;27.40;49.70
10121;DHT22;5100;45.176;5.714;2023-05-31T15:36:08;27.40;50.00
10121;DHT22;5100;45.176;5.714;2023-05-31T15:38:36;27.40;51.10
10121;DHT22;5100;45.176;5.714;2023-05-31T15:41:02;27.40;52.20
10121;DHT22;5100;45.176;5.714;2023-05-31T15:43:28;27.30;53.60
10121;DHT22;5100;45.176;5.714;2023-05-31T15:45:55;27.20;56.20
10121;DHT22;5100;45.176;5.714;2023-05-31T15:48:24;27.20;58.00
10121;DHT22;5100;45.176;5.714;2023-05-31T15:50:51;27.10;59.90
10121;DHT22;5100;45.176;5.714;2023-05-31T15:53:17;27.00;60.90
10121;DHT22;5100;45.176;5.714;2023-05-31T15:55:44;27.00;61.80
10121;DHT22;5100;45.176;5.714;2023-05-31T15:58:10;26.90;62.30
10121;DHT22;5100;45.176;5.714;2023-05-31T16:00:37;26.80;61.90
10121;DHT22;5100;45.176;5.714;2023-05-31T16:03:04;26.70;62.40
10121;DHT22;5100;45.176;5.714;2023-05-31T16:05:30;26.60;62.00
10121;DHT22;5100;45.176;5.714;2023-05-31T16:08:00;26.50;61.60
10121;DHT22;5100;45.176;5.714;2023-05-31T16:10:27;26.50;59.30
10121;DHT22;5100;45.176;5.714;2023-05-31T16:12:54;26.40;58.90
10121;DHT22;5100;45.176;5.714;2023-05-31T16:15:20;26.30;58.10
10121;DHT22;5100;45.176;5.714;2023-05-31T16:17:46;26.20;57.40